sensor_id;sensor_type;location;lat;lon;timestamp;P1;durP1;ratioP1;P2;durP2;ratioP2
17806;SDS011;9027;48.938;9.182;2023-03-01T00:00:48;19.47;;;12.00;;
17806;SDS011;9027;48.938;9.182;2023-03-01T00:02:20;19.33;;;12.40;;
17806;SDS011;9027;48.938;9.182;2023-03-01T00:03:53;18.13;;;11.40;;
17806;SDS011;9027;48.938;9.182;2023-03-01T00:05:26;18.27;;;12.00;;
17806;SDS011;9027;48.938;9.182;2023-03-01T00:06:56;27.10;;;12.63;;
17806;SDS011;9027;48.938;9.182;2023-03-01T00:08:28;19.27;;;12.13;;
17806;SDS011;9027;48.938;9.182;2023-03-01T00:10:01;20.27;;;14.27;;
17806;SDS011;9027;48.938;9.182;2023-03-01T00:11:33;20.90;;;14.07;;
17806;SDS011;9027;48.938;9.182;2023-03-01T00:13:05;20.73;;;13.90;;
17806;SDS011;9027;48.938;9.182;2023-03-01T00:14:36;21.23;;;13.93;;
17806;SDS011;9027;48.938;9.182;2023-03-01T00:16:08;20.37;;;13.00;;
17806;SDS011;9027;48.938;9.182;2023-03-01T00:17:43;17.73;;;11.77;;
17806;SDS011;9027;48.938;9.182;2023-03-01T00:19:16;18.13;;;12.20;;
17806;SDS011;9027;48.938;9.182;2023-03-01T00:20:49;16.60;;;11.53;;
17806;SDS011;9027;48.938;9.182;2023-03-01T00:22:21;18.10;;;11.87;;
17806;SDS011;9027;48.938;9.182;2023-03-01T00:23:53;17.73;;;11.47;;
17806;SDS011;9027;48.938;9.182;2023-03-01T00:25:25;19.30;;;12.10;;
17806;SDS011;9027;48.938;9.182;2023-03-01T00:26:56;16.53;;;10.87;;
17806;SDS011;9027;48.938;9.182;2023-03-01T00:28:28;18.33;;;11.20;;
17806;SDS011;9027;48.938;9.182;2023-03-01T00:29:59;18.63;;;11.83;;
17806;SDS011;9027;48.938;9.182;2023-03-01T00:31:31;16.53;;;11.67;;
17806;SDS011;9027;48.938;9.182;2023-03-01T00:33:05;19.57;;;11.87;;
17806;SDS011;9027;48.938;9.182;2023-03-01T00:34:37;18.97;;;11.43;;
17806;SDS011;9027;48.938;9.182;2023-03-01T00:36:10;16.20;;;10.60;;
17806;SDS011;9027;48.938;9.182;2023-03-01T00:37:42;14.70;;;10.40;;
17806;SDS011;9027;48.938;9.182;2023-03-01T00:39:14;18.23;;;11.00;;
17806;SDS011;9027;48.938;9.182;2023-03-01T00:40:46;15.70;;;10.83;;
17806;SDS011;9027;48.938;9.182;2023-03-01T00:42:18;17.10;;;12.20;;
17806;SDS011;9027;48.938;9.182;2023-03-01T00:43:52;17.93;;;12.27;;
17806;SDS011;9027;48.938;9.182;2023-03-01T00:45:25;20.27;;;12.40;;
17806;SDS011;9027;48.938;9.182;2023-03-01T00:46:57;19.10;;;12.00;;
17806;SDS011;9027;48.938;9.182;2023-03-01T00:48:30;18.43;;;12.27;;
17806;SDS011;9027;48.938;9.182;2023-03-01T00:50:03;19.07;;;12.50;;
17806;SDS011;9027;48.938;9.182;2023-03-01T00:51:35;18.53;;;12.50;;
17806;SDS011;9027;48.938;9.182;2023-03-01T00:53:09;17.53;;;11.50;;
17806;SDS011;9027;48.938;9.182;2023-03-01T00:54:40;19.63;;;12.40;;
17806;SDS011;9027;48.938;9.182;2023-03-01T00:56:12;19.27;;;12.53;;
17806;SDS011;9027;48.938;9.182;2023-03-01T00:57:45;17.77;;;12.23;;
17806;SDS011;9027;48.938;9.182;2023-03-01T00:59:18;21.57;;;12.73;;
17806;SDS011;9027;48.938;9.182;2023-03-01T01:00:50;19.27;;;12.27;;
17806;SDS011;9027;48.938;9.182;2023-03-01T01:02:22;19.17;;;12.13;;
17806;SDS011;9027;48.938;9.182;2023-03-01T01:03:56;19.43;;;12.03;;
17806;SDS011;9027;48.938;9.182;2023-03-01T01:05:29;20.23;;;13.13;;
17806;SDS011;9027;48.938;9.182;2023-03-01T01:07:01;20.03;;;12.10;;
17806;SDS011;9027;48.938;9.182;2023-03-01T01:08:33;21.17;;;12.83;;
17806;SDS011;9027;48.938;9.182;2023-03-01T01:10:04;16.53;;;11.50;;
17806;SDS011;9027;48.938;9.182;2023-03-01T01:11:37;16.70;;;11.43;;
17806;SDS011;9027;48.938;9.182;2023-03-01T01:13:08;19.90;;;12.07;;
17806;SDS011;9027;48.938;9.182;2023-03-01T01:14:40;19.27;;;11.93;;
17806;SDS011;9027;48.938;9.182;2023-03-01T01:16:13;17.97;;;11.50;;
17806;SDS011;9027;48.938;9.182;2023-03-01T01:17:45;17.73;;;12.73;;
17806;SDS011;9027;48.938;9.182;2023-03-01T01:19:19;17.63;;;11.20;;
17806;SDS011;9027;48.938;9.182;2023-03-01T01:20:52;18.73;;;12.30;;
17806;SDS011;9027;48.938;9.182;2023-03-01T01:22:23;19.53;;;12.07;;
17806;SDS011;9027;48.938;9.182;2023-03-01T01:23:55;19.27;;;12.83;;
17806;SDS011;9027;48.938;9.182;2023-03-01T01:25:27;21.67;;;12.20;;
17806;SDS011;9027;48.938;9.182;2023-03-01T01:26:58;21.10;;;12.10;;
17806;SDS011;9027;48.938;9.182;2023-03-01T01:28:30;18.03;;;11.70;;
17806;SDS011;9027;48.938;9.182;2023-03-01T01:30:01;20.10;;;12.60;;
17806;SDS011;9027;48.938;9.182;2023-03-01T01:31:34;21.70;;;12.17;;
17806;SDS011;9027;48.938;9.182;2023-03-01T01:33:07;20.20;;;13.17;;
17806;SDS011;9027;48.938;9.182;2023-03-01T01:34:40;18.43;;;12.00;;
17806;SDS011;9027;48.938;9.182;2023-03-01T01:36:12;18.10;;;12.17;;
17806;SDS011;9027;48.938;9.182;2023-03-01T01:37:44;18.83;;;12.20;;
17806;SDS011;9027;48.938;9.182;2023-03-01T01:39:16;20.23;;;12.00;;
17806;SDS011;9027;48.938;9.182;2023-03-01T01:40:48;20.57;;;12.70;;
17806;SDS011;9027;48.938;9.182;2023-03-01T01:42:20;21.40;;;12.77;;
17806;SDS011;9027;48.938;9.182;2023-03-01T01:45:43;16.60;;;10.83;;
17806;SDS011;9027;48.938;9.182;2023-03-01T01:47:15;18.40;;;12.13;;
17806;SDS011;9027;48.938;9.182;2023-03-01T01:48:50;18.73;;;12.33;;
17806;SDS011;9027;48.938;9.182;2023-03-01T01:50:27;18.80;;;11.47;;
17806;SDS011;9027;48.938;9.182;2023-03-01T01:52:09;20.47;;;11.57;;
17806;SDS011;9027;48.938;9.182;2023-03-01T01:53:45;18.57;;;11.83;;
17806;SDS011;9027;48.938;9.182;2023-03-01T01:55:19;17.70;;;11.90;;
17806;SDS011;9027;48.938;9.182;2023-03-01T01:56:55;21.73;;;12.60;;
17806;SDS011;9027;48.938;9.182;2023-03-01T01:58:30;19.43;;;11.63;;
17806;SDS011;9027;48.938;9.182;2023-03-01T02:00:04;19.40;;;12.80;;
17806;SDS011;9027;48.938;9.182;2023-03-01T02:01:43;19.13;;;12.30;;
17806;SDS011;9027;48.938;9.182;2023-03-01T02:03:17;17.23;;;11.63;;
17806;SDS011;9027;48.938;9.182;2023-03-01T02:04:55;17.20;;;11.00;;
17806;SDS011;9027;48.938;9.182;2023-03-01T02:06:36;19.37;;;11.83;;
17806;SDS011;9027;48.938;9.182;2023-03-01T02:08:10;17.07;;;11.57;;
17806;SDS011;9027;48.938;9.182;2023-03-01T02:09:44;18.47;;;12.07;;
17806;SDS011;9027;48.938;9.182;2023-03-01T02:11:18;17.73;;;12.00;;
17806;SDS011;9027;48.938;9.182;2023-03-01T02:12:52;18.60;;;10.70;;
17806;SDS011;9027;48.938;9.182;2023-03-01T02:14:26;19.37;;;11.57;;
17806;SDS011;9027;48.938;9.182;2023-03-01T02:15:57;20.67;;;12.07;;
17806;SDS011;9027;48.938;9.182;2023-03-01T02:17:30;17.53;;;11.20;;
17806;SDS011;9027;48.938;9.182;2023-03-01T02:19:03;17.50;;;11.73;;
17806;SDS011;9027;48.938;9.182;2023-03-01T02:20:38;16.87;;;11.67;;
17806;SDS011;9027;48.938;9.182;2023-03-01T02:22:20;20.23;;;12.23;;
17806;SDS011;9027;48.938;9.182;2023-03-01T02:23:55;19.40;;;11.57;;
17806;SDS011;9027;48.938;9.182;2023-03-01T02:25:33;19.13;;;12.17;;
17806;SDS011;9027;48.938;9.182;2023-03-01T02:27:11;19.97;;;12.20;;
17806;SDS011;9027;48.938;9.182;2023-03-01T02:28:44;23.07;;;13.20;;
17806;SDS011;9027;48.938;9.182;2023-03-01T02:30:16;17.97;;;11.37;;
17806;SDS011;9027;48.938;9.182;2023-03-01T02:31:49;19.77;;;12.23;;
17806;SDS011;9027;48.938;9.182;2023-03-01T02:33:22;17.80;;;11.97;;
17806;SDS011;9027;48.938;9.182;2023-03-01T02:34:55;17.43;;;12.10;;
17806;SDS011;9027;48.938;9.182;2023-03-01T02:36:29;20.40;;;12.90;;
17806;SDS011;9027;48.938;9.182;2023-03-01T02:38:03;17.10;;;12.23;;
17806;SDS011;9027;48.938;9.182;2023-03-01T02:39:39;20.60;;;12.40;;
17806;SDS011;9027;48.938;9.182;2023-03-01T02:41:14;19.97;;;12.33;;
17806;SDS011;9027;48.938;9.182;2023-03-01T02:42:48;18.17;;;11.67;;
17806;SDS011;9027;48.938;9.182;2023-03-01T02:44:25;17.20;;;11.87;;
17806;SDS011;9027;48.938;9.182;2023-03-01T02:45:57;20.70;;;13.33;;
17806;SDS011;9027;48.938;9.182;2023-03-01T02:47:29;16.17;;;11.33;;
17806;SDS011;9027;48.938;9.182;2023-03-01T02:49:02;17.33;;;11.30;;
17806;SDS011;9027;48.938;9.182;2023-03-01T02:50:52;18.60;;;11.37;;
17806;SDS011;9027;48.938;9.182;2023-03-01T02:52:37;18.03;;;11.80;;
17806;SDS011;9027;48.938;9.182;2023-03-01T02:54:17;16.83;;;11.53;;
17806;SDS011;9027;48.938;9.182;2023-03-01T02:55:53;20.17;;;11.80;;
17806;SDS011;9027;48.938;9.182;2023-03-01T02:57:27;18.07;;;11.80;;
17806;SDS011;9027;48.938;9.182;2023-03-01T02:58:59;18.87;;;12.13;;
17806;SDS011;9027;48.938;9.182;2023-03-01T03:00:36;18.00;;;12.67;;
17806;SDS011;9027;48.938;9.182;2023-03-01T03:02:18;18.27;;;12.73;;
17806;SDS011;9027;48.938;9.182;2023-03-01T03:04:06;15.77;;;11.73;;
17806;SDS011;9027;48.938;9.182;2023-03-01T03:05:41;20.27;;;13.20;;
17806;SDS011;9027;48.938;9.182;2023-03-01T03:07:13;20.40;;;12.53;;
17806;SDS011;9027;48.938;9.182;2023-03-01T03:08:45;17.67;;;12.13;;
17806;SDS011;9027;48.938;9.182;2023-03-01T03:10:17;20.83;;;12.20;;
17806;SDS011;9027;48.938;9.182;2023-03-01T03:11:51;18.23;;;11.80;;
17806;SDS011;9027;48.938;9.182;2023-03-01T03:13:23;20.60;;;12.90;;
17806;SDS011;9027;48.938;9.182;2023-03-01T03:14:58;19.47;;;12.83;;
17806;SDS011;9027;48.938;9.182;2023-03-01T03:16:32;18.23;;;12.30;;
17806;SDS011;9027;48.938;9.182;2023-03-01T03:18:04;19.17;;;13.37;;
17806;SDS011;9027;48.938;9.182;2023-03-01T03:19:37;18.83;;;12.37;;
17806;SDS011;9027;48.938;9.182;2023-03-01T03:21:09;22.00;;;13.93;;
17806;SDS011;9027;48.938;9.182;2023-03-01T03:22:41;18.80;;;12.80;;
17806;SDS011;9027;48.938;9.182;2023-03-01T03:24:13;20.57;;;13.87;;
17806;SDS011;9027;48.938;9.182;2023-03-01T03:25:45;19.37;;;13.23;;
17806;SDS011;9027;48.938;9.182;2023-03-01T03:27:18;18.50;;;13.17;;
17806;SDS011;9027;48.938;9.182;2023-03-01T03:28:50;20.47;;;13.50;;
17806;SDS011;9027;48.938;9.182;2023-03-01T03:30:22;19.70;;;13.00;;
17806;SDS011;9027;48.938;9.182;2023-03-01T03:31:57;17.70;;;12.27;;
17806;SDS011;9027;48.938;9.182;2023-03-01T03:33:28;24.40;;;14.40;;
17806;SDS011;9027;48.938;9.182;2023-03-01T03:35:00;19.53;;;12.87;;
17806;SDS011;9027;48.938;9.182;2023-03-01T03:36:32;21.07;;;12.93;;
17806;SDS011;9027;48.938;9.182;2023-03-01T03:38:04;22.37;;;13.83;;
17806;SDS011;9027;48.938;9.182;2023-03-01T03:39:39;22.83;;;14.43;;
17806;SDS011;9027;48.938;9.182;2023-03-01T03:41:11;24.93;;;14.50;;
17806;SDS011;9027;48.938;9.182;2023-03-01T03:42:43;21.27;;;13.27;;
17806;SDS011;9027;48.938;9.182;2023-03-01T03:44:14;17.87;;;12.80;;
17806;SDS011;9027;48.938;9.182;2023-03-01T03:45:46;23.07;;;13.60;;
17806;SDS011;9027;48.938;9.182;2023-03-01T03:47:20;17.33;;;12.47;;
17806;SDS011;9027;48.938;9.182;2023-03-01T03:48:51;20.47;;;14.00;;
17806;SDS011;9027;48.938;9.182;2023-03-01T03:50:22;21.00;;;13.40;;
17806;SDS011;9027;48.938;9.182;2023-03-01T03:51:53;20.13;;;13.17;;
17806;SDS011;9027;48.938;9.182;2023-03-01T03:53:26;19.17;;;13.07;;
17806;SDS011;9027;48.938;9.182;2023-03-01T03:54:59;21.17;;;14.10;;
17806;SDS011;9027;48.938;9.182;2023-03-01T03:56:31;19.60;;;13.20;;
17806;SDS011;9027;48.938;9.182;2023-03-01T03:58:03;20.13;;;13.50;;
17806;SDS011;9027;48.938;9.182;2023-03-01T03:59:36;19.33;;;13.57;;
17806;SDS011;9027;48.938;9.182;2023-03-01T04:01:08;21.40;;;13.53;;
17806;SDS011;9027;48.938;9.182;2023-03-01T04:02:42;21.63;;;12.93;;
17806;SDS011;9027;48.938;9.182;2023-03-01T04:04:13;19.33;;;12.60;;
17806;SDS011;9027;48.938;9.182;2023-03-01T04:05:48;21.20;;;13.53;;
17806;SDS011;9027;48.938;9.182;2023-03-01T04:07:20;20.57;;;13.27;;
17806;SDS011;9027;48.938;9.182;2023-03-01T04:08:53;19.77;;;13.57;;
17806;SDS011;9027;48.938;9.182;2023-03-01T04:10:29;21.87;;;14.13;;
17806;SDS011;9027;48.938;9.182;2023-03-01T04:12:03;18.37;;;13.20;;
17806;SDS011;9027;48.938;9.182;2023-03-01T04:13:35;21.70;;;14.17;;
17806;SDS011;9027;48.938;9.182;2023-03-01T04:15:08;20.33;;;13.20;;
17806;SDS011;9027;48.938;9.182;2023-03-01T04:16:43;21.23;;;13.90;;
17806;SDS011;9027;48.938;9.182;2023-03-01T04:18:16;17.93;;;12.87;;
17806;SDS011;9027;48.938;9.182;2023-03-01T04:19:49;19.57;;;13.10;;
17806;SDS011;9027;48.938;9.182;2023-03-01T04:21:21;20.00;;;13.70;;
17806;SDS011;9027;48.938;9.182;2023-03-01T04:22:56;20.47;;;13.53;;
17806;SDS011;9027;48.938;9.182;2023-03-01T04:24:29;21.43;;;14.17;;
17806;SDS011;9027;48.938;9.182;2023-03-01T04:26:00;19.80;;;13.03;;
17806;SDS011;9027;48.938;9.182;2023-03-01T04:27:32;19.83;;;14.03;;
17806;SDS011;9027;48.938;9.182;2023-03-01T04:29:04;19.57;;;12.93;;
17806;SDS011;9027;48.938;9.182;2023-03-01T04:30:36;21.17;;;14.10;;
17806;SDS011;9027;48.938;9.182;2023-03-01T04:32:08;19.03;;;12.63;;
17806;SDS011;9027;48.938;9.182;2023-03-01T04:33:41;20.53;;;13.37;;
17806;SDS011;9027;48.938;9.182;2023-03-01T04:35:14;18.87;;;13.37;;
17806;SDS011;9027;48.938;9.182;2023-03-01T04:36:46;21.50;;;14.13;;
17806;SDS011;9027;48.938;9.182;2023-03-01T04:38:17;20.53;;;13.13;;
17806;SDS011;9027;48.938;9.182;2023-03-01T04:39:51;21.43;;;13.93;;
17806;SDS011;9027;48.938;9.182;2023-03-01T04:41:23;19.17;;;13.60;;
17806;SDS011;9027;48.938;9.182;2023-03-01T04:42:56;20.97;;;13.73;;
17806;SDS011;9027;48.938;9.182;2023-03-01T04:44:27;22.40;;;14.07;;
17806;SDS011;9027;48.938;9.182;2023-03-01T04:46:02;20.87;;;14.40;;
17806;SDS011;9027;48.938;9.182;2023-03-01T04:47:34;21.73;;;13.53;;
17806;SDS011;9027;48.938;9.182;2023-03-01T04:49:09;21.47;;;14.20;;
17806;SDS011;9027;48.938;9.182;2023-03-01T04:50:41;21.97;;;14.20;;
17806;SDS011;9027;48.938;9.182;2023-03-01T04:52:13;21.37;;;13.37;;
17806;SDS011;9027;48.938;9.182;2023-03-01T04:53:45;20.20;;;13.63;;
17806;SDS011;9027;48.938;9.182;2023-03-01T04:55:17;20.40;;;13.17;;
17806;SDS011;9027;48.938;9.182;2023-03-01T04:56:48;24.87;;;13.77;;
17806;SDS011;9027;48.938;9.182;2023-03-01T04:58:20;19.87;;;13.33;;
17806;SDS011;9027;48.938;9.182;2023-03-01T04:59:52;20.73;;;13.70;;
17806;SDS011;9027;48.938;9.182;2023-03-01T05:01:24;25.33;;;13.97;;
17806;SDS011;9027;48.938;9.182;2023-03-01T05:02:56;24.90;;;14.73;;
17806;SDS011;9027;48.938;9.182;2023-03-01T05:04:31;21.23;;;14.47;;
17806;SDS011;9027;48.938;9.182;2023-03-01T05:06:02;22.47;;;13.77;;
17806;SDS011;9027;48.938;9.182;2023-03-01T05:07:35;20.13;;;13.43;;
17806;SDS011;9027;48.938;9.182;2023-03-01T05:09:07;20.83;;;14.03;;
17806;SDS011;9027;48.938;9.182;2023-03-01T05:10:38;21.43;;;14.00;;
17806;SDS011;9027;48.938;9.182;2023-03-01T05:12:11;22.77;;;13.63;;
17806;SDS011;9027;48.938;9.182;2023-03-01T05:13:43;21.37;;;14.23;;
17806;SDS011;9027;48.938;9.182;2023-03-01T05:15:15;19.33;;;13.73;;
17806;SDS011;9027;48.938;9.182;2023-03-01T05:16:47;19.50;;;13.13;;
17806;SDS011;9027;48.938;9.182;2023-03-01T05:18:19;21.80;;;13.93;;
17806;SDS011;9027;48.938;9.182;2023-03-01T05:19:52;18.10;;;13.57;;
17806;SDS011;9027;48.938;9.182;2023-03-01T05:21:25;18.60;;;13.77;;
17806;SDS011;9027;48.938;9.182;2023-03-01T05:22:58;19.47;;;14.10;;
17806;SDS011;9027;48.938;9.182;2023-03-01T05:24:30;21.60;;;14.97;;
17806;SDS011;9027;48.938;9.182;2023-03-01T05:26:03;20.67;;;15.60;;
17806;SDS011;9027;48.938;9.182;2023-03-01T05:27:36;22.93;;;16.17;;
17806;SDS011;9027;48.938;9.182;2023-03-01T05:29:08;23.47;;;16.27;;
17806;SDS011;9027;48.938;9.182;2023-03-01T05:30:40;20.80;;;14.37;;
17806;SDS011;9027;48.938;9.182;2023-03-01T05:32:12;19.37;;;13.47;;
17806;SDS011;9027;48.938;9.182;2023-03-01T05:33:45;22.00;;;14.13;;
17806;SDS011;9027;48.938;9.182;2023-03-01T05:35:19;19.60;;;13.07;;
17806;SDS011;9027;48.938;9.182;2023-03-01T05:36:51;21.10;;;14.03;;
17806;SDS011;9027;48.938;9.182;2023-03-01T05:38:23;19.77;;;13.53;;
17806;SDS011;9027;48.938;9.182;2023-03-01T05:39:54;22.63;;;14.53;;
17806;SDS011;9027;48.938;9.182;2023-03-01T05:41:25;20.63;;;13.87;;
17806;SDS011;9027;48.938;9.182;2023-03-01T05:42:58;21.23;;;14.00;;
17806;SDS011;9027;48.938;9.182;2023-03-01T05:44:30;20.33;;;13.80;;
17806;SDS011;9027;48.938;9.182;2023-03-01T05:46:02;18.70;;;13.70;;
17806;SDS011;9027;48.938;9.182;2023-03-01T05:47:34;20.07;;;13.77;;
17806;SDS011;9027;48.938;9.182;2023-03-01T05:49:05;20.60;;;13.47;;
17806;SDS011;9027;48.938;9.182;2023-03-01T05:50:39;21.53;;;13.83;;
17806;SDS011;9027;48.938;9.182;2023-03-01T05:52:13;20.00;;;13.97;;
17806;SDS011;9027;48.938;9.182;2023-03-01T05:53:43;19.23;;;13.83;;
17806;SDS011;9027;48.938;9.182;2023-03-01T05:55:16;18.97;;;13.03;;
17806;SDS011;9027;48.938;9.182;2023-03-01T05:56:48;25.67;;;15.07;;
17806;SDS011;9027;48.938;9.182;2023-03-01T05:58:20;20.03;;;14.13;;
17806;SDS011;9027;48.938;9.182;2023-03-01T05:59:52;21.53;;;14.00;;
17806;SDS011;9027;48.938;9.182;2023-03-01T06:01:23;20.60;;;14.07;;
17806;SDS011;9027;48.938;9.182;2023-03-01T06:02:55;20.23;;;13.87;;
17806;SDS011;9027;48.938;9.182;2023-03-01T06:04:28;20.20;;;13.53;;
17806;SDS011;9027;48.938;9.182;2023-03-01T06:06:01;23.30;;;14.63;;
17806;SDS011;9027;48.938;9.182;2023-03-01T06:07:33;18.73;;;14.03;;
17806;SDS011;9027;48.938;9.182;2023-03-01T06:09:05;20.90;;;14.47;;
17806;SDS011;9027;48.938;9.182;2023-03-01T06:10:40;22.60;;;14.23;;
17806;SDS011;9027;48.938;9.182;2023-03-01T06:12:11;20.20;;;14.20;;
17806;SDS011;9027;48.938;9.182;2023-03-01T06:13:43;21.20;;;14.80;;
17806;SDS011;9027;48.938;9.182;2023-03-01T06:15:16;20.30;;;13.93;;
17806;SDS011;9027;48.938;9.182;2023-03-01T06:16:48;18.90;;;13.63;;
17806;SDS011;9027;48.938;9.182;2023-03-01T06:18:20;18.83;;;13.00;;
17806;SDS011;9027;48.938;9.182;2023-03-01T06:19:51;23.10;;;15.80;;
17806;SDS011;9027;48.938;9.182;2023-03-01T06:21:24;20.77;;;15.10;;
17806;SDS011;9027;48.938;9.182;2023-03-01T06:22:56;21.37;;;14.97;;
17806;SDS011;9027;48.938;9.182;2023-03-01T06:24:30;23.10;;;14.63;;
17806;SDS011;9027;48.938;9.182;2023-03-01T06:26:05;22.90;;;15.27;;
17806;SDS011;9027;48.938;9.182;2023-03-01T06:27:38;20.57;;;13.63;;
17806;SDS011;9027;48.938;9.182;2023-03-01T06:29:09;21.33;;;15.57;;
17806;SDS011;9027;48.938;9.182;2023-03-01T06:30:41;24.50;;;14.43;;
17806;SDS011;9027;48.938;9.182;2023-03-01T06:32:14;22.10;;;15.10;;
17806;SDS011;9027;48.938;9.182;2023-03-01T06:33:46;23.07;;;15.77;;
17806;SDS011;9027;48.938;9.182;2023-03-01T06:35:18;24.77;;;15.60;;
17806;SDS011;9027;48.938;9.182;2023-03-01T06:36:50;21.50;;;14.87;;
17806;SDS011;9027;48.938;9.182;2023-03-01T06:38:22;23.37;;;15.03;;
17806;SDS011;9027;48.938;9.182;2023-03-01T06:39:55;22.60;;;15.93;;
17806;SDS011;9027;48.938;9.182;2023-03-01T06:41:26;23.30;;;15.47;;
17806;SDS011;9027;48.938;9.182;2023-03-01T06:42:58;20.47;;;14.70;;
17806;SDS011;9027;48.938;9.182;2023-03-01T06:44:31;23.53;;;15.13;;
17806;SDS011;9027;48.938;9.182;2023-03-01T06:46:05;23.20;;;15.40;;
17806;SDS011;9027;48.938;9.182;2023-03-01T06:47:38;22.47;;;15.17;;
17806;SDS011;9027;48.938;9.182;2023-03-01T06:49:10;20.07;;;14.37;;
17806;SDS011;9027;48.938;9.182;2023-03-01T06:50:42;22.40;;;14.63;;
17806;SDS011;9027;48.938;9.182;2023-03-01T06:52:15;22.90;;;15.17;;
17806;SDS011;9027;48.938;9.182;2023-03-01T06:53:47;24.63;;;16.07;;
17806;SDS011;9027;48.938;9.182;2023-03-01T06:55:19;20.30;;;14.03;;
17806;SDS011;9027;48.938;9.182;2023-03-01T06:56:50;20.57;;;14.23;;
17806;SDS011;9027;48.938;9.182;2023-03-01T06:58:24;20.90;;;14.30;;
17806;SDS011;9027;48.938;9.182;2023-03-01T06:59:56;22.27;;;14.90;;
17806;SDS011;9027;48.938;9.182;2023-03-01T07:01:28;24.87;;;15.57;;
17806;SDS011;9027;48.938;9.182;2023-03-01T07:03:01;20.47;;;15.43;;
17806;SDS011;9027;48.938;9.182;2023-03-01T07:04:33;24.43;;;16.77;;
17806;SDS011;9027;48.938;9.182;2023-03-01T07:06:05;21.47;;;14.87;;
17806;SDS011;9027;48.938;9.182;2023-03-01T07:07:38;24.87;;;15.50;;
17806;SDS011;9027;48.938;9.182;2023-03-01T07:09:10;21.03;;;15.20;;
17806;SDS011;9027;48.938;9.182;2023-03-01T07:10:42;19.63;;;15.00;;
17806;SDS011;9027;48.938;9.182;2023-03-01T07:12:14;20.90;;;15.37;;
17806;SDS011;9027;48.938;9.182;2023-03-01T07:13:46;22.80;;;16.17;;
17806;SDS011;9027;48.938;9.182;2023-03-01T07:15:18;19.10;;;15.10;;
17806;SDS011;9027;48.938;9.182;2023-03-01T07:16:50;23.67;;;14.90;;
17806;SDS011;9027;48.938;9.182;2023-03-01T07:18:22;20.87;;;15.30;;
17806;SDS011;9027;48.938;9.182;2023-03-01T07:19:54;19.37;;;14.23;;
17806;SDS011;9027;48.938;9.182;2023-03-01T07:21:26;19.67;;;15.00;;
17806;SDS011;9027;48.938;9.182;2023-03-01T07:22:59;19.80;;;14.03;;
17806;SDS011;9027;48.938;9.182;2023-03-01T07:24:31;20.85;;;15.63;;
17806;SDS011;9027;48.938;9.182;2023-03-01T07:26:03;20.35;;;14.73;;
17806;SDS011;9027;48.938;9.182;2023-03-01T07:27:35;19.65;;;14.38;;
17806;SDS011;9027;48.938;9.182;2023-03-01T07:29:07;17.80;;;14.10;;
17806;SDS011;9027;48.938;9.182;2023-03-01T07:30:41;18.08;;;14.27;;
17806;SDS011;9027;48.938;9.182;2023-03-01T07:32:13;18.98;;;15.07;;
17806;SDS011;9027;48.938;9.182;2023-03-01T07:33:45;17.25;;;14.50;;
17806;SDS011;9027;48.938;9.182;2023-03-01T07:35:17;19.83;;;14.63;;
17806;SDS011;9027;48.938;9.182;2023-03-01T07:36:49;17.02;;;14.20;;
17806;SDS011;9027;48.938;9.182;2023-03-01T07:38:22;18.95;;;14.40;;
17806;SDS011;9027;48.938;9.182;2023-03-01T07:39:54;18.10;;;14.07;;
17806;SDS011;9027;48.938;9.182;2023-03-01T07:41:26;18.95;;;14.07;;
17806;SDS011;9027;48.938;9.182;2023-03-01T07:42:58;20.92;;;15.00;;
17806;SDS011;9027;48.938;9.182;2023-03-01T07:44:31;18.35;;;15.25;;
17806;SDS011;9027;48.938;9.182;2023-03-01T07:46:03;19.40;;;15.30;;
17806;SDS011;9027;48.938;9.182;2023-03-01T07:47:36;21.50;;;16.05;;
17806;SDS011;9027;48.938;9.182;2023-03-01T07:49:08;17.58;;;15.35;;
17806;SDS011;9027;48.938;9.182;2023-03-01T07:50:40;19.67;;;16.02;;
17806;SDS011;9027;48.938;9.182;2023-03-01T07:52:12;19.63;;;14.65;;
17806;SDS011;9027;48.938;9.182;2023-03-01T07:53:46;18.30;;;14.75;;
17806;SDS011;9027;48.938;9.182;2023-03-01T07:55:19;17.42;;;14.43;;
17806;SDS011;9027;48.938;9.182;2023-03-01T07:56:51;20.27;;;15.45;;
17806;SDS011;9027;48.938;9.182;2023-03-01T07:58:24;17.70;;;14.57;;
17806;SDS011;9027;48.938;9.182;2023-03-01T07:59:56;19.27;;;14.75;;
17806;SDS011;9027;48.938;9.182;2023-03-01T08:01:28;19.15;;;15.45;;
17806;SDS011;9027;48.938;9.182;2023-03-01T08:03:04;20.83;;;15.38;;
17806;SDS011;9027;48.938;9.182;2023-03-01T08:04:36;19.45;;;15.20;;
17806;SDS011;9027;48.938;9.182;2023-03-01T08:06:08;17.65;;;14.45;;
17806;SDS011;9027;48.938;9.182;2023-03-01T08:07:41;25.60;;;16.30;;
17806;SDS011;9027;48.938;9.182;2023-03-01T08:09:14;18.98;;;14.10;;
17806;SDS011;9027;48.938;9.182;2023-03-01T08:10:46;16.55;;;14.10;;
17806;SDS011;9027;48.938;9.182;2023-03-01T08:12:18;18.73;;;15.38;;
17806;SDS011;9027;48.938;9.182;2023-03-01T08:13:50;18.10;;;13.80;;
17806;SDS011;9027;48.938;9.182;2023-03-01T08:15:22;19.50;;;14.82;;
17806;SDS011;9027;48.938;9.182;2023-03-01T08:16:53;20.48;;;14.77;;
17806;SDS011;9027;48.938;9.182;2023-03-01T08:18:26;20.55;;;15.98;;
17806;SDS011;9027;48.938;9.182;2023-03-01T08:19:58;20.20;;;15.57;;
17806;SDS011;9027;48.938;9.182;2023-03-01T08:21:29;18.58;;;14.63;;
17806;SDS011;9027;48.938;9.182;2023-03-01T08:23:01;20.10;;;15.13;;
17806;SDS011;9027;48.938;9.182;2023-03-01T08:24:34;19.70;;;15.20;;
17806;SDS011;9027;48.938;9.182;2023-03-01T08:26:07;21.02;;;14.90;;
17806;SDS011;9027;48.938;9.182;2023-03-01T08:27:40;18.13;;;14.73;;
17806;SDS011;9027;48.938;9.182;2023-03-01T08:29:12;21.20;;;14.73;;
17806;SDS011;9027;48.938;9.182;2023-03-01T08:30:44;18.83;;;14.52;;
17806;SDS011;9027;48.938;9.182;2023-03-01T08:32:16;21.35;;;14.65;;
17806;SDS011;9027;48.938;9.182;2023-03-01T08:33:48;21.95;;;15.80;;
17806;SDS011;9027;48.938;9.182;2023-03-01T08:35:25;18.83;;;15.20;;
17806;SDS011;9027;48.938;9.182;2023-03-01T08:36:57;19.53;;;15.63;;
17806;SDS011;9027;48.938;9.182;2023-03-01T08:38:29;19.92;;;15.05;;
17806;SDS011;9027;48.938;9.182;2023-03-01T08:40:02;22.42;;;16.33;;
17806;SDS011;9027;48.938;9.182;2023-03-01T08:41:37;17.35;;;14.50;;
17806;SDS011;9027;48.938;9.182;2023-03-01T08:43:09;24.00;;;15.63;;
17806;SDS011;9027;48.938;9.182;2023-03-01T08:44:41;19.27;;;14.98;;
17806;SDS011;9027;48.938;9.182;2023-03-01T08:46:13;19.37;;;14.93;;
17806;SDS011;9027;48.938;9.182;2023-03-01T08:47:45;22.63;;;15.87;;
17806;SDS011;9027;48.938;9.182;2023-03-01T08:49:18;60.50;;;40.17;;
17806;SDS011;9027;48.938;9.182;2023-03-01T08:50:50;44.77;;;31.77;;
17806;SDS011;9027;48.938;9.182;2023-03-01T08:52:23;21.27;;;15.43;;
17806;SDS011;9027;48.938;9.182;2023-03-01T08:53:55;21.67;;;15.17;;
17806;SDS011;9027;48.938;9.182;2023-03-01T08:55:28;21.80;;;15.37;;
17806;SDS011;9027;48.938;9.182;2023-03-01T08:57:01;24.37;;;16.37;;
17806;SDS011;9027;48.938;9.182;2023-03-01T08:58:33;20.93;;;14.83;;
17806;SDS011;9027;48.938;9.182;2023-03-01T09:00:05;22.13;;;14.80;;
17806;SDS011;9027;48.938;9.182;2023-03-01T09:01:39;21.23;;;15.33;;
17806;SDS011;9027;48.938;9.182;2023-03-01T09:03:13;24.50;;;15.57;;
17806;SDS011;9027;48.938;9.182;2023-03-01T09:04:45;24.93;;;16.17;;
17806;SDS011;9027;48.938;9.182;2023-03-01T09:06:17;20.47;;;15.27;;
17806;SDS011;9027;48.938;9.182;2023-03-01T09:07:49;20.90;;;15.77;;
17806;SDS011;9027;48.938;9.182;2023-03-01T09:09:21;21.70;;;15.40;;
17806;SDS011;9027;48.938;9.182;2023-03-01T09:10:54;22.87;;;14.93;;
17806;SDS011;9027;48.938;9.182;2023-03-01T09:12:26;18.17;;;14.70;;